Time;durP1;ratioP1;P1;durP2;ratioP2;P2;SDS_P1;SDS_P2;PMS_P1;PMS_P2;Temp;Humidity;BMP_temperature;BMP_pressure;BME280_temperature;BME280_humidity;BME280_pressure;Samples;Min_cycle;Max_cycle;Signal;HPM_P1;HPM_P2
2021/06/06 00:00:38;;;;;;;15.98;12.27;;;22.60;99.90;;;;;;5033001;28;20568;-71
2021/06/06 00:03:07;;;;;;;13.03;11.40;;;22.60;99.90;;;;;;5032465;28;20551;-70
2021/06/06 00:05:41;;;;;;;12.53;10.90;;;22.60;99.90;;;;;;5032942;28;20458;-70
2021/06/06 00:08:08;;;;;;;15.40;12.00;;;22.50;99.90;;;;;;5033545;28;20457;-70
2021/06/06 00:10:34;;;;;;;14.65;10.70;;;22.50;99.90;;;;;;5033418;28;20458;-71
2021/06/06 00:13:00;;;;;;;15.38;11.70;;;22.50;99.90;;;;;;5032762;28;20361;-71
2021/06/06 00:15:26;;;;;;;13.68;10.95;;;22.50;99.90;;;;;;5033415;28;20215;-71
2021/06/06 00:17:54;;;;;;;14.50;12.87;;;22.50;99.90;;;;;;5031845;28;20640;-70
2021/06/06 00:20:21;;;;;;;14.35;12.13;;;22.40;99.90;;;;;;5033057;28;20464;-70
2021/06/06 00:22:47;;;;;;;14.53;10.80;;;22.40;99.90;;;;;;5032588;28;20268;-71
2021/06/06 00:25:14;;;;;;;16.10;12.35;;;22.40;99.90;;;;;;5026433;28;20688;-71
2021/06/06 00:27:40;;;;;;;15.50;12.80;;;22.40;99.90;;;;;;5031312;28;20199;-71
2021/06/06 00:30:09;;;;;;;12.45;10.40;;;22.40;99.90;;;;;;5033990;28;20204;-70
2021/06/06 00:32:36;;;;;;;17.17;11.50;;;22.40;99.90;;;;;;5028858;28;20199;-71
2021/06/06 00:35:05;;;;;;;14.73;10.73;;;22.40;99.90;;;;;;5032936;28;20227;-70
2021/06/06 00:37:31;;;;;;;13.25;11.77;;;22.30;99.90;;;;;;5032222;28;20196;-70
2021/06/06 00:39:57;;;;;;;13.93;10.88;;;22.30;99.90;;;;;;5033578;28;20219;-71
2021/06/06 00:42:25;;;;;;;12.73;11.32;;;22.30;99.90;;;;;;5032813;28;20203;-71
2021/06/06 00:44:51;;;;;;;14.57;11.80;;;22.30;99.90;;;;;;5032395;28;20195;-71
2021/06/06 00:47:17;;;;;;;14.10;11.00;;;22.30;99.90;;;;;;5033001;28;20195;-70
2021/06/06 00:49:44;;;;;;;13.57;12.18;;;22.30;99.90;;;;;;5032396;28;20446;-71
2021/06/06 00:52:15;;;;;;;17.58;12.93;;;22.30;99.90;;;;;;5033034;28;20552;-71
2021/06/06 00:54:45;;;;;;;12.20;11.00;;;22.30;99.90;;;;;;5032455;28;20218;-71
2021/06/06 00:57:14;;;;;;;12.15;10.77;;;22.20;99.90;;;;;;5031355;28;20322;-71
2021/06/06 00:59:46;;;;;;;12.98;11.20;;;22.20;99.90;;;;;;5026799;28;20199;-70
2021/06/06 01:02:13;;;;;;;13.13;11.82;;;22.20;99.90;;;;;;5032639;28;20196;-71
2021/06/06 01:04:41;;;;;;;13.77;11.57;;;22.20;99.90;;;;;;5028823;28;20200;-70
2021/06/06 01:07:07;;;;;;;16.20;12.85;;;22.20;99.90;;;;;;5032114;28;20201;-71
2021/06/06 01:09:35;;;;;;;14.80;12.13;;;22.20;99.90;;;;;;5031625;28;20625;-71
2021/06/06 01:12:07;;;;;;;14.73;12.13;;;22.20;99.90;;;;;;5017183;28;20207;-72
2021/06/06 01:14:38;;;;;;;12.68;11.38;;;22.10;99.90;;;;;;5024714;28;20274;-71
2021/06/06 01:17:10;;;;;;;13.80;11.75;;;22.10;99.90;;;;;;5031441;28;20222;-71
2021/06/06 01:19:42;;;;;;;16.30;12.50;;;22.10;99.90;;;;;;5032316;28;20287;-70
2021/06/06 01:22:41;;;;;;;15.23;12.02;;;22.10;99.90;;;;;;5032529;28;20183;-71
2021/06/06 01:25:12;;;;;;;12.07;10.85;;;22.10;99.90;;;;;;5031718;28;20215;-72
2021/06/06 01:27:42;;;;;;;14.82;11.20;;;22.10;99.90;;;;;;5022943;28;20660;-70
2021/06/06 01:30:12;;;;;;;14.18;12.57;;;22.00;99.90;;;;;;5028774;28;20683;-71
2021/06/06 01:32:42;;;;;;;12.73;11.30;;;22.00;99.90;;;;;;5027800;28;20203;-71
2021/06/06 01:35:13;;;;;;;14.98;11.35;;;22.00;99.90;;;;;;5027591;28;20222;-71
2021/06/06 01:37:44;;;;;;;12.27;10.65;;;22.00;99.90;;;;;;5031199;28;20631;-71
2021/06/06 01:40:18;;;;;;;13.55;10.85;;;22.00;99.90;;;;;;5025171;28;20277;-71
2021/06/06 01:42:48;;;;;;;13.40;10.55;;;22.00;99.90;;;;;;5032751;28;20563;-71
2021/06/06 01:45:18;;;;;;;13.00;11.57;;;21.90;99.90;;;;;;5031672;28;20767;-71
2021/06/06 01:47:47;;;;;;;11.27;9.63;;;21.90;99.90;;;;;;5030543;28;20207;-72
2021/06/06 01:50:19;;;;;;;10.88;9.60;;;21.90;99.90;;;;;;5031831;28;20252;-72
2021/06/06 01:52:46;;;;;;;11.50;10.18;;;21.90;99.90;;;;;;5022267;28;20207;-72
2021/06/06 01:55:17;;;;;;;13.05;10.40;;;21.90;99.90;;;;;;5016841;28;20277;-72
2021/06/06 01:57:45;;;;;;;13.27;10.55;;;21.90;99.90;;;;;;5029150;28;20199;-72
2021/06/06 02:00:17;;;;;;;9.93;8.98;;;21.80;99.90;;;;;;5031519;28;20199;-72
2021/06/06 02:02:43;;;;;;;12.48;9.02;;;21.80;99.90;;;;;;5018716;28;20200;-72
2021/06/06 02:05:14;;;;;;;10.73;9.48;;;21.80;99.90;;;;;;5031222;28;20245;-71
2021/06/06 02:07:43;;;;;;;11.95;9.95;;;21.80;99.90;;;;;;5030429;28;20204;-70
2021/06/06 02:10:18;;;;;;;10.38;9.32;;;21.80;99.90;;;;;;5030376;28;20337;-71
2021/06/06 02:12:49;;;;;;;9.55;8.55;;;21.80;99.90;;;;;;5031227;28;20199;-70
2021/06/06 02:15:20;;;;;;;11.95;10.25;;;21.70;99.90;;;;;;5030333;28;20569;-70
2021/06/06 02:17:46;;;;;;;12.38;9.40;;;21.70;99.90;;;;;;5029333;28;20666;-70
2021/06/06 02:20:14;;;;;;;10.48;9.48;;;21.70;99.90;;;;;;5029046;28;20203;-70
2021/06/06 02:22:40;;;;;;;10.50;9.40;;;21.70;99.90;;;;;;5028162;28;20211;-70
2021/06/06 02:25:08;;;;;;;10.85;8.82;;;21.70;99.90;;;;;;5027575;28;20207;-70
2021/06/06 02:27:39;;;;;;;11.40;8.40;;;21.70;99.90;;;;;;5025943;28;20234;-70
2021/06/06 02:30:13;;;;;;;9.32;8.43;;;21.70;99.90;;;;;;5028754;28;20206;-70
2021/06/06 02:32:47;;;;;;;13.35;9.23;;;21.60;99.90;;;;;;5031324;28;20199;-70
2021/06/06 02:35:18;;;;;;;9.35;8.38;;;21.60;99.90;;;;;;5031766;28;20203;-70
2021/06/06 02:37:51;;;;;;;10.27;8.10;;;21.60;99.90;;;;;;5031010;28;20206;-70
2021/06/06 02:40:25;;;;;;;8.95;8.02;;;21.60;99.90;;;;;;5031576;28;20635;-70
2021/06/06 02:42:56;;;;;;;9.27;8.38;;;21.60;99.90;;;;;;5031325;28;20207;-70
2021/06/06 02:45:25;;;;;;;9.00;8.10;;;21.60;99.90;;;;;;5031310;28;20199;-70
2021/06/06 02:47:55;;;;;;;9.55;7.80;;;21.60;99.90;;;;;;5031658;28;20196;-70
2021/06/06 02:50:25;;;;;;;9.25;8.45;;;21.50;99.90;;;;;;5031702;28;20196;-70
2021/06/06 02:52:57;;;;;;;8.43;7.60;;;21.50;99.90;;;;;;5025959;28;20200;-70
2021/06/06 02:55:26;;;;;;;11.35;9.43;;;21.50;99.90;;;;;;5012505;28;20227;-70
2021/06/06 02:57:58;;;;;;;8.70;7.75;;;21.50;99.90;;;;;;5030848;28;20203;-70
2021/06/06 03:00:29;;;;;;;9.13;8.23;;;21.50;99.90;;;;;;5031632;28;20180;-70
2021/06/06 03:03:01;;;;;;;8.00;7.30;;;21.50;99.90;;;;;;5031241;28;20214;-70
2021/06/06 03:05:29;;;;;;;8.57;7.38;;;21.50;99.90;;;;;;5031246;28;20211;-70
2021/06/06 03:07:59;;;;;;;9.23;8.23;;;21.50;99.90;;;;;;5032224;28;20195;-70
2021/06/06 03:10:29;;;;;;;8.90;7.38;;;21.40;99.90;;;;;;5034532;28;20214;-70
2021/06/06 03:13:01;;;;;;;8.77;7.25;;;21.40;99.90;;;;;;5034730;28;20199;-70
2021/06/06 03:15:31;;;;;;;7.82;6.57;;;21.40;99.90;;;;;;5034141;28;20227;-71
2021/06/06 03:17:58;;;;;;;8.13;7.00;;;21.40;99.90;;;;;;5034737;28;20249;-71
2021/06/06 03:20:28;;;;;;;10.32;8.50;;;21.40;99.90;;;;;;5033939;28;20203;-70
2021/06/06 03:22:56;;;;;;;7.30;6.65;;;21.40;99.90;;;;;;5034960;28;20184;-71
2021/06/06 03:25:41;;;;;;;8.00;7.25;;;21.40;99.90;;;;;;5033812;28;20195;-71
2021/06/06 03:28:11;;;;;;;7.75;6.95;;;21.30;99.90;;;;;;5024089;28;20200;-72
2021/06/06 03:30:40;;;;;;;7.93;7.22;;;21.30;99.90;;;;;;5015031;28;20204;-72
2021/06/06 03:33:10;;;;;;;9.02;8.13;;;21.30;99.90;;;;;;5021956;28;20226;-71
2021/06/06 03:35:37;;;;;;;7.97;7.15;;;21.30;99.90;;;;;;5020164;28;20208;-71
2021/06/06 03:38:03;;;;;;;7.43;6.57;;;21.30;99.90;;;;;;5023886;28;20210;-70
2021/06/06 03:40:34;;;;;;;7.90;6.50;;;21.30;99.90;;;;;;5034488;28;20218;-72
2021/06/06 03:43:01;;;;;;;8.07;7.28;;;21.30;99.90;;;;;;5033899;28;20191;-72
2021/06/06 03:45:28;;;;;;;7.53;6.82;;;21.30;99.90;;;;;;5034196;28;20207;-71
2021/06/06 03:47:56;;;;;;;7.82;7.03;;;21.20;99.90;;;;;;5033864;28;20212;-71
2021/06/06 03:50:23;;;;;;;7.80;7.10;;;21.20;99.90;;;;;;5028647;28;20675;-71
2021/06/06 03:52:50;;;;;;;7.03;6.40;;;21.20;99.90;;;;;;5033388;28;20196;-71
2021/06/06 03:55:19;;;;;;;7.97;7.18;;;21.20;99.90;;;;;;5034637;28;20720;-72
2021/06/06 03:57:46;;;;;;;7.28;6.05;;;21.20;99.90;;;;;;5032772;28;20204;-71
2021/06/06 04:00:16;;;;;;;8.23;7.38;;;21.20;99.90;;;;;;5023053;28;20211;-71
2021/06/06 04:02:44;;;;;;;9.88;7.50;;;21.20;99.90;;;;;;5017852;28;20261;-71
2021/06/06 04:05:12;;;;;;;7.70;7.00;;;21.20;99.90;;;;;;5033565;28;20532;-71
2021/06/06 04:07:38;;;;;;;9.48;7.43;;;21.10;99.90;;;;;;5033786;28;20247;-71
2021/06/06 04:10:05;;;;;;;8.10;7.22;;;21.10;99.90;;;;;;5026582;28;20219;-71
2021/06/06 04:12:32;;;;;;;8.23;7.43;;;21.10;99.90;;;;;;5031334;28;20206;-71
2021/06/06 04:14:58;;;;;;;8.73;7.47;;;21.10;99.90;;;;;;5030687;28;20611;-71
2021/06/06 04:17:25;;;;;;;7.40;6.70;;;21.10;99.90;;;;;;5031207;28;20203;-71
2021/06/06 04:19:55;;;;;;;8.13;6.57;;;21.10;99.90;;;;;;5029751;28;20195;-70
2021/06/06 04:22:21;;;;;;;7.60;6.90;;;21.10;99.90;;;;;;5027615;28;20199;-70
2021/06/06 04:24:48;;;;;;;7.60;6.80;;;21.10;99.90;;;;;;5029118;28;20206;-70
2021/06/06 04:27:14;;;;;;;8.25;6.63;;;21.10;99.90;;;;;;5031327;28;20204;-70
2021/06/06 04:29:40;;;;;;;7.90;7.00;;;21.00;99.90;;;;;;5031865;28;20211;-70
2021/06/06 04:32:07;;;;;;;8.35;7.55;;;21.00;99.90;;;;;;5030663;28;20246;-69
2021/06/06 04:34:36;;;;;;;7.93;7.00;;;21.00;99.90;;;;;;5030445;28;20223;-70
2021/06/06 04:37:04;;;;;;;8.10;7.05;;;21.00;99.90;;;;;;5030005;28;20230;-70
2021/06/06 04:39:30;;;;;;;7.75;6.78;;;21.00;99.90;;;;;;5031148;28;20207;-71
2021/06/06 04:41:56;;;;;;;6.45;5.82;;;21.00;99.90;;;;;;5030650;28;20595;-70
2021/06/06 04:44:23;;;;;;;7.43;6.72;;;21.00;99.90;;;;;;5030669;28;20269;-70
2021/06/06 04:46:49;;;;;;;8.82;6.80;;;21.00;99.90;;;;;;5029451;28;20203;-69
2021/06/06 04:49:15;;;;;;;7.28;6.40;;;21.00;99.90;;;;;;5029933;28;20199;-70
2021/06/06 04:51:43;;;;;;;7.15;6.50;;;21.00;99.90;;;;;;5031078;28;20191;-70
2021/06/06 04:54:10;;;;;;;6.45;5.95;;;21.00;99.90;;;;;;5030326;28;20200;-70
2021/06/06 04:56:37;;;;;;;6.80;6.18;;;20.90;99.90;;;;;;5032101;28;20210;-71
2021/06/06 04:59:03;;;;;;;6.97;6.30;;;20.90;99.90;;;;;;5032512;28;20196;-71
2021/06/06 05:01:31;;;;;;;6.90;6.22;;;20.90;99.90;;;;;;5033217;28;20226;-70
2021/06/06 05:03:57;;;;;;;9.70;7.22;;;20.90;99.90;;;;;;5032194;28;20638;-71
2021/06/06 05:06:24;;;;;;;6.55;5.95;;;20.90;99.90;;;;;;5032508;28;20640;-70
2021/06/06 05:08:50;;;;;;;9.80;6.07;;;20.80;99.90;;;;;;5030654;28;20559;-70
2021/06/06 05:11:18;;;;;;;9.10;6.30;;;20.80;99.90;;;;;;5012777;28;20200;-70
2021/06/06 05:13:44;;;;;;;6.03;5.53;;;20.80;99.90;;;;;;5022134;28;20218;-70
2021/06/06 05:16:10;;;;;;;6.95;6.28;;;20.80;99.90;;;;;;5031795;28;20538;-70
2021/06/06 05:18:37;;;;;;;7.00;6.30;;;20.80;99.90;;;;;;5030890;28;20203;-70
2021/06/06 05:21:04;;;;;;;7.00;6.30;;;20.80;99.90;;;;;;5032415;28;20708;-70
2021/06/06 05:23:31;;;;;;;8.43;6.10;;;20.80;99.90;;;;;;5027393;28;20210;-70
2021/06/06 05:25:58;;;;;;;6.50;5.85;;;20.80;99.90;;;;;;5019593;28;20219;-69
2021/06/06 05:28:28;;;;;;;6.60;6.00;;;20.70;99.90;;;;;;5027363;28;20214;-70
2021/06/06 05:30:55;;;;;;;7.10;6.40;;;20.70;99.90;;;;;;5027287;28;20211;-70
2021/06/06 05:33:21;;;;;;;7.20;6.60;;;20.70;99.90;;;;;;5028582;28;20231;-70
2021/06/06 05:35:48;;;;;;;7.78;6.82;;;20.70;99.90;;;;;;5027889;28;20277;-69
2021/06/06 05:38:16;;;;;;;8.05;7.22;;;20.70;99.90;;;;;;5029096;28;20195;-70
2021/06/06 05:40:43;;;;;;;6.32;5.82;;;20.70;99.90;;;;;;5029385;28;20231;-70
2021/06/06 05:43:11;;;;;;;8.13;7.13;;;20.70;99.90;;;;;;5028672;28;20203;-70
2021/06/06 05:45:39;;;;;;;6.90;6.30;;;20.70;99.90;;;;;;5028224;28;20616;-70
2021/06/06 05:48:06;;;;;;;6.47;5.88;;;20.70;99.90;;;;;;5028491;28;20203;-70
2021/06/06 05:50:37;;;;;;;9.13;6.65;;;20.70;99.90;;;;;;5026754;28;20581;-70
2021/06/06 05:53:03;;;;;;;7.03;6.43;;;20.70;99.90;;;;;;5028738;28;20223;-70
2021/06/06 05:55:30;;;;;;;7.55;6.85;;;20.70;99.90;;;;;;5028319;28;20212;-70
2021/06/06 05:57:56;;;;;;;6.53;5.28;;;20.70;99.90;;;;;;5028887;28;20202;-70
2021/06/06 06:00:26;;;;;;;6.55;6.03;;;20.60;99.90;;;;;;5028098;28;20218;-70
2021/06/06 06:02:53;;;;;;;6.30;5.80;;;20.60;99.90;;;;;;5028983;28;20196;-70
2021/06/06 06:05:20;;;;;;;7.40;6.15;;;20.60;99.90;;;;;;5028874;28;20642;-70
2021/06/06 06:07:46;;;;;;;8.07;7.28;;;20.60;99.90;;;;;;5025326;28;20207;-70
2021/06/06 06:10:20;;;;;;;6.35;5.75;;;20.60;99.90;;;;;;5029859;28;20214;-70
2021/06/06 06:12:46;;;;;;;7.68;6.97;;;20.60;99.90;;;;;;5030698;28;20572;-70
2021/06/06 06:15:14;;;;;;;7.90;6.72;;;20.60;99.90;;;;;;5027391;28;20215;-70
2021/06/06 06:17:40;;;;;;;7.40;6.70;;;20.60;99.90;;;;;;5028530;28;20195;-70
2021/06/06 06:20:11;;;;;;;7.32;6.70;;;20.60;99.90;;;;;;5029809;28;20250;-70
2021/06/06 06:22:37;;;;;;;6.47;5.88;;;20.60;99.90;;;;;;5029182;28;20676;-69
2021/06/06 06:25:04;;;;;;;8.75;6.93;;;20.60;99.90;;;;;;5025998;28;20192;-69
2021/06/06 06:27:30;;;;;;;7.82;7.15;;;20.60;99.90;;;;;;5022158;28;20202;-71
2021/06/06 06:29:56;;;;;;;6.88;6.28;;;20.60;99.90;;;;;;5024799;28;20195;-69
2021/06/06 06:32:23;;;;;;;7.15;6.55;;;20.60;99.90;;;;;;5025410;28;20207;-69
2021/06/06 06:34:49;;;;;;;7.80;7.05;;;20.60;99.90;;;;;;5029706;28;20238;-69
2021/06/06 06:37:18;;;;;;;7.60;6.85;;;20.60;99.90;;;;;;5028281;28;20199;-69
2021/06/06 06:39:45;;;;;;;7.50;6.80;;;20.60;99.90;;;;;;5012803;28;20235;-69
2021/06/06 06:42:12;;;;;;;6.97;6.22;;;20.60;99.90;;;;;;5027926;28;20192;-69
2021/06/06 06:44:38;;;;;;;7.50;6.80;;;20.50;99.90;;;;;;5035453;28;20540;-69
2021/06/06 06:47:04;;;;;;;8.05;7.35;;;20.60;99.90;;;;;;5034672;28;20213;-70
2021/06/06 06:49:30;;;;;;;9.57;8.68;;;20.50;99.90;;;;;;5030163;28;20204;-70
2021/06/06 06:51:57;;;;;;;6.80;6.13;;;20.50;99.90;;;;;;5026966;28;20203;-70
2021/06/06 06:54:24;;;;;;;8.10;7.30;;;20.50;99.90;;;;;;5033155;28;20203;-69
2021/06/06 06:56:50;;;;;;;7.35;6.65;;;20.50;99.90;;;;;;5031457;28;20557;-69
2021/06/06 06:59:17;;;;;;;6.75;6.18;;;20.50;99.90;;;;;;5031863;28;20203;-69
2021/06/06 07:01:43;;;;;;;7.63;6.93;;;20.50;99.90;;;;;;5031673;28;20576;-69
2021/06/06 07:04:09;;;;;;;8.13;7.32;;;20.50;99.90;;;;;;5032201;28;20199;-69
2021/06/06 07:06:36;;;;;;;8.57;7.88;;;20.50;99.90;;;;;;5031973;28;20561;-69
2021/06/06 07:09:02;;;;;;;7.13;6.50;;;20.50;99.90;;;;;;5031178;28;20643;-69
2021/06/06 07:11:29;;;;;;;7.80;7.07;;;20.50;99.90;;;;;;5032151;28;20253;-69
2021/06/06 07:13:56;;;;;;;7.30;6.60;;;20.50;99.90;;;;;;5031979;28;20203;-69
2021/06/06 07:16:22;;;;;;;9.13;7.80;;;20.50;99.90;;;;;;5031738;28;20226;-69
2021/06/06 07:18:50;;;;;;;7.85;7.25;;;20.50;99.90;;;;;;5030553;28;20261;-69
2021/06/06 07:21:19;;;;;;;8.32;7.47;;;20.50;99.90;;;;;;5031069;28;20196;-70
2021/06/06 07:23:45;;;;;;;8.02;7.32;;;20.50;99.90;;;;;;5029290;28;20250;-70
2021/06/06 07:26:15;;;;;;;8.43;7.63;;;20.50;99.90;;;;;;5031955;28;20203;-70
2021/06/06 07:28:42;;;;;;;7.43;6.70;;;20.50;99.90;;;;;;5030154;28;20203;-70
2021/06/06 07:31:09;;;;;;;8.20;7.40;;;20.50;99.90;;;;;;5030410;28;20548;-70
2021/06/06 07:33:41;;;;;;;7.65;6.95;;;20.50;99.90;;;;;;5028161;28;20309;-70
2021/06/06 07:36:09;;;;;;;7.90;7.10;;;20.50;99.90;;;;;;5030903;28;20235;-70
2021/06/06 07:38:35;;;;;;;8.25;7.13;;;20.50;99.90;;;;;;5027214;28;20253;-70
2021/06/06 07:41:03;;;;;;;8.55;7.70;;;20.50;99.90;;;;;;5032159;28;20206;-70
2021/06/06 07:43:29;;;;;;;6.88;5.93;;;20.50;99.90;;;;;;5032908;28;20199;-70
2021/06/06 07:45:57;;;;;;;8.10;7.30;;;20.50;99.90;;;;;;5033493;28;20210;-70
2021/06/06 07:48:23;;;;;;;7.43;6.50;;;20.40;99.90;;;;;;5032861;28;20211;-70
2021/06/06 07:50:51;;;;;;;7.70;7.00;;;20.40;99.90;;;;;;5034173;28;20196;-69
2021/06/06 07:53:19;;;;;;;7.25;6.65;;;20.40;99.90;;;;;;5032127;28;20269;-70
2021/06/06 07:55:45;;;;;;;7.95;7.20;;;20.40;99.90;;;;;;5033730;28;20738;-70
2021/06/06 07:58:13;;;;;;;8.27;7.40;;;20.40;99.90;;;;;;5031732;28;20195;-70
2021/06/06 08:00:42;;;;;;;9.68;7.75;;;20.40;99.90;;;;;;5030716;28;20206;-69
2021/06/06 08:03:10;;;;;;;7.10;6.40;;;20.40;99.90;;;;;;5031302;28;20540;-69
2021/06/06 08:05:39;;;;;;;7.72;7.05;;;20.40;99.90;;;;;;5031865;28;20199;-69
2021/06/06 08:08:06;;;;;;;8.82;7.90;;;20.40;99.90;;;;;;5032056;28;20195;-70
2021/06/06 08:10:34;;;;;;;9.02;8.13;;;20.40;99.90;;;;;;5033062;28;20210;-70
2021/06/06 08:13:00;;;;;;;8.70;7.90;;;20.40;99.90;;;;;;5031431;28;20253;-69
2021/06/06 08:15:28;;;;;;;8.90;8.10;;;20.40;99.90;;;;;;5033336;28;20222;-69
2021/06/06 08:17:54;;;;;;;8.80;7.80;;;20.40;99.90;;;;;;5032064;28;20254;-69
2021/06/06 08:20:25;;;;;;;9.18;8.27;;;20.40;99.90;;;;;;5032288;28;20207;-69
2021/06/06 08:22:51;;;;;;;9.93;8.48;;;20.40;99.90;;;;;;5030078;28;20218;-69
2021/06/06 08:25:19;;;;;;;8.07;7.38;;;20.50;99.90;;;;;;5030108;28;20210;-70
2021/06/06 08:27:47;;;;;;;8.98;8.07;;;20.40;99.90;;;;;;5029727;28;20576;-69
2021/06/06 08:30:21;;;;;;;8.75;7.95;;;20.40;99.90;;;;;;5030288;28;20200;-70
2021/06/06 08:32:48;;;;;;;8.40;7.70;;;20.40;99.90;;;;;;5029954;28;20195;-70
2021/06/06 08:35:15;;;;;;;9.00;7.13;;;20.50;99.90;;;;;;5029735;28;20235;-70
2021/06/06 08:37:43;;;;;;;10.13;8.73;;;20.50;99.90;;;;;;5029595;28;20260;-69
2021/06/06 08:40:12;;;;;;;10.77;7.72;;;20.40;99.90;;;;;;5029553;28;20203;-70
2021/06/06 08:42:43;;;;;;;9.38;7.85;;;20.40;99.90;;;;;;5029751;28;20245;-70
2021/06/06 08:45:16;;;;;;;10.52;9.15;;;20.50;99.90;;;;;;5030959;28;20199;-69
2021/06/06 08:47:42;;;;;;;9.32;8.18;;;20.50;99.90;;;;;;5030302;28;20203;-70
2021/06/06 08:50:13;;;;;;;10.77;8.88;;;20.40;99.90;;;;;;5029588;28;20200;-70
2021/06/06 08:52:49;;;;;;;9.80;8.80;;;20.40;99.90;;;;;;5029810;28;20298;-70
2021/06/06 08:55:28;;;;;;;8.38;7.55;;;20.40;99.90;;;;;;5031631;28;20534;-70
2021/06/06 08:58:09;;;;;;;10.05;9.05;;;20.40;99.90;;;;;;5032844;28;20525;-69
2021/06/06 09:00:39;;;;;;;8.90;7.80;;;20.40;99.90;;;;;;5031190;28;20679;-70
2021/06/06 09:03:11;;;;;;;9.30;8.45;;;20.50;99.90;;;;;;5032247;28;20222;-69
2021/06/06 09:05:40;;;;;;;8.50;7.70;;;20.40;99.90;;;;;;5031911;28;20199;-70
2021/06/06 09:08:13;;;;;;;10.38;7.90;;;20.50;99.90;;;;;;5031119;28;20278;-70
2021/06/06 09:10:43;;;;;;;8.68;7.88;;;20.40;99.90;;;;;;5028655;28;20203;-70
2021/06/06 09:13:13;;;;;;;9.00;8.10;;;20.50;99.90;;;;;;5031776;28;20531;-70
2021/06/06 09:15:39;;;;;;;8.25;7.43;;;20.50;99.90;;;;;;5030079;28;20227;-70
2021/06/06 09:18:19;;;;;;;10.05;8.07;;;20.40;99.90;;;;;;5023534;28;20195;-70
2021/06/06 09:20:46;;;;;;;9.35;8.40;;;20.40;99.90;;;;;;5029989;28;20290;-69
2021/06/06 09:23:20;;;;;;;13.38;10.15;;;20.50;99.90;;;;;;5025141;28;20200;-69
2021/06/06 09:26:00;;;;;;;11.23;10.13;;;20.50;99.90;;;;;;5029745;28;20206;-70
2021/06/06 09:28:29;;;;;;;13.15;11.40;;;20.50;99.90;;;;;;5026805;28;20685;-69
2021/06/06 09:30:59;;;;;;;10.60;9.45;;;20.50;99.90;;;;;;5025607;28;20211;-70
2021/06/06 09:33:28;;;;;;;13.40;10.90;;;20.50;99.90;;;;;;5026512;28;20235;-69
2021/06/06 09:35:56;;;;;;;12.10;8.73;;;20.50;99.90;;;;;;5025046;28;20662;-70
2021/06/06 09:38:40;;;;;;;13.15;11.38;;;20.50;99.90;;;;;;5024927;28;20582;-69
2021/06/06 09:41:20;;;;;;;10.27;9.35;;;20.50;99.90;;;;;;5027667;28;20528;-70
2021/06/06 09:44:03;;;;;;;12.50;11.23;;;20.50;99.90;;;;;;5029016;28;20199;-69
2021/06/06 09:46:36;;;;;;;10.02;9.20;;;20.50;99.90;;;;;;5027066;28;20200;-70
2021/06/06 09:49:21;;;;;;;10.07;9.07;;;20.50;99.90;;;;;;5026127;28;20188;-69
2021/06/06 09:51:47;;;;;;;11.20;9.77;;;20.50;99.90;;;;;;5027932;28;20195;-69
2021/06/06 09:54:18;;;;;;;12.25;10.43;;;20.50;99.90;;;;;;5027754;28;20582;-68
2021/06/06 09:56:52;;;;;;;10.35;9.35;;;20.50;99.90;;;;;;5027699;28;20218;-69
2021/06/06 09:59:24;;;;;;;11.75;10.55;;;20.50;99.90;;;;;;5023802;28;20273;-69
2021/06/06 10:01:55;;;;;;;9.70;8.40;;;20.50;99.90;;;;;;5028747;28;20215;-70
2021/06/06 10:04:25;;;;;;;10.45;9.50;;;20.50;99.90;;;;;;5014878;28;20323;-70
2021/06/06 10:06:51;;;;;;;9.70;8.82;;;20.50;99.90;;;;;;5028402;28;20202;-69
2021/06/06 10:09:30;;;;;;;12.10;8.82;;;20.50;99.90;;;;;;5027216;28;20215;-69
2021/06/06 10:12:02;;;;;;;10.90;9.00;;;20.50;99.90;;;;;;5017441;28;20541;-69
2021/06/06 10:14:34;;;;;;;9.80;8.77;;;20.60;99.90;;;;;;5026074;28;20223;-70
2021/06/06 10:17:04;;;;;;;10.43;9.10;;;20.60;99.90;;;;;;5029970;28;20223;-69
2021/06/06 10:19:35;;;;;;;8.75;7.85;;;20.60;99.90;;;;;;5029491;28;20203;-69
2021/06/06 10:22:06;;;;;;;9.57;8.68;;;20.60;99.90;;;;;;5013502;28;20655;-70
2021/06/06 10:24:39;;;;;;;9.18;8.32;;;20.60;99.90;;;;;;5030001;28;20207;-69
2021/06/06 10:27:10;;;;;;;13.23;8.43;;;20.60;99.90;;;;;;5030288;28;20230;-69
2021/06/06 10:29:42;;;;;;;9.50;8.70;;;20.60;99.90;;;;;;5021294;28;20708;-70
2021/06/06 10:32:14;;;;;;;9.38;8.20;;;20.60;99.90;;;;;;5024062;28;20652;-69
2021/06/06 10:34:45;;;;;;;9.68;8.77;;;20.60;99.90;;;;;;5029224;28;20231;-70
2021/06/06 10:37:12;;;;;;;11.00;8.50;;;20.70;99.90;;;;;;5029907;28;20195;-70
2021/06/06 10:39:42;;;;;;;11.07;9.45;;;20.70;99.90;;;;;;5030034;28;20257;-70
2021/06/06 10:42:14;;;;;;;14.18;8.20;;;20.70;99.90;;;;;;5027577;28;20192;-70
2021/06/06 10:44:50;;;;;;;12.55;9.88;;;20.70;99.90;;;;;;5029685;28;20226;-70
2021/06/06 10:47:21;;;;;;;10.65;9.60;;;20.70;99.90;;;;;;5030899;28;20603;-69
2021/06/06 10:49:52;;;;;;;9.80;8.80;;;20.70;99.90;;;;;;5030052;28;20222;-69
2021/06/06 10:52:26;;;;;;;9.40;8.50;;;20.70;99.90;;;;;;5029143;28;20206;-69
2021/06/06 10:54:57;;;;;;;9.30;8.30;;;20.60;99.90;;;;;;5023518;28;20639;-68
2021/06/06 10:57:33;;;;;;;13.10;9.40;;;20.70;99.90;;;;;;5025505;28;20199;-70
2021/06/06 11:00:25;;;;;;;11.07;9.40;;;20.70;99.90;;;;;;5028590;28;20283;-70
2021/06/06 11:02:56;;;;;;;9.43;8.50;;;20.70;99.90;;;;;;5025145;28;20204;-69
2021/06/06 11:05:45;;;;;;;13.35;8.60;;;20.70;99.90;;;;;;5028253;28;20191;-69
2021/06/06 11:08:20;;;;;;;10.55;8.15;;;20.70;99.90;;;;;;5027280;28;20204;-70
2021/06/06 11:10:48;;;;;;;8.63;7.53;;;20.70;99.90;;;;;;5028353;28;20203;-69
2021/06/06 11:13:32;;;;;;;10.68;9.60;;;20.80;99.90;;;;;;5027647;28;20517;-70
2021/06/06 11:16:02;;;;;;;9.60;8.57;;;20.70;99.90;;;;;;5027317;28;20219;-70
2021/06/06 11:18:28;;;;;;;8.50;7.70;;;20.80;99.90;;;;;;5027157;28;20218;-70
2021/06/06 11:20:59;;;;;;;10.20;9.20;;;20.80;99.90;;;;;;5027422;28;20200;-69
2021/06/06 11:23:36;;;;;;;7.40;6.65;;;20.80;99.90;;;;;;5027972;28;20247;-69
2021/06/06 11:26:18;;;;;;;8.55;7.70;;;20.80;99.90;;;;;;5029841;28;20521;-69
2021/06/06 11:28:45;;;;;;;7.97;7.28;;;20.80;99.90;;;;;;5029163;28;20607;-70
2021/06/06 11:31:25;;;;;;;9.10;8.20;;;20.80;99.90;;;;;;5024364;28;20532;-69
2021/06/06 11:33:58;;;;;;;10.48;9.30;;;20.80;99.90;;;;;;5029412;28;20234;-70
2021/06/06 11:36:31;;;;;;;9.75;8.85;;;20.80;99.90;;;;;;5029093;28;20204;-70
2021/06/06 11:39:15;;;;;;;10.50;9.50;;;20.80;99.90;;;;;;5033178;28;20204;-69
2021/06/06 11:41:44;;;;;;;8.95;8.02;;;20.80;99.90;;;;;;5034440;28;20202;-68
2021/06/06 11:44:27;;;;;;;12.50;8.98;;;20.90;99.90;;;;;;5035006;28;20199;-69
2021/06/06 11:46:57;;;;;;;10.10;9.10;;;20.80;99.90;;;;;;5032044;28;20218;-69
2021/06/06 11:49:34;;;;;;;11.57;8.57;;;20.80;99.90;;;;;;5033722;28;20204;-70
2021/06/06 11:52:07;;;;;;;8.70;7.90;;;20.80;99.90;;;;;;5033621;28;20219;-69
2021/06/06 11:54:39;;;;;;;9.73;8.82;;;20.80;99.90;;;;;;5031048;28;20196;-70
2021/06/06 11:57:10;;;;;;;8.50;7.13;;;20.80;99.90;;;;;;5027760;28;20227;-69
2021/06/06 11:59:42;;;;;;;8.52;7.57;;;20.90;99.90;;;;;;5033325;28;20206;-69
2021/06/06 12:02:11;;;;;;;10.15;8.63;;;20.90;99.90;;;;;;5030892;28;20254;-69
2021/06/06 12:04:39;;;;;;;9.15;7.97;;;20.90;99.90;;;;;;5028020;28;20660;-69
2021/06/06 12:07:13;;;;;;;11.15;8.52;;;20.90;99.90;;;;;;5028262;28;20600;-69
2021/06/06 12:09:42;;;;;;;8.95;8.15;;;20.90;99.90;;;;;;5030665;28;20192;-71
2021/06/06 12:12:13;;;;;;;11.65;8.70;;;20.90;99.90;;;;;;5031323;28;20199;-70
2021/06/06 12:14:40;;;;;;;9.00;8.20;;;21.00;99.90;;;;;;5030127;28;20637;-70
2021/06/06 12:17:17;;;;;;;9.15;8.25;;;21.00;99.90;;;;;;5029330;28;20215;-70
2021/06/06 12:19:48;;;;;;;10.27;7.82;;;20.90;99.90;;;;;;5030953;28;20187;-70
2021/06/06 12:22:22;;;;;;;9.23;8.43;;;21.00;99.90;;;;;;5030629;28;20206;-70
2021/06/06 12:24:58;;;;;;;8.63;7.70;;;21.00;99.90;;;;;;5029482;28;20203;-70
2021/06/06 12:27:29;;;;;;;9.65;8.65;;;21.00;99.90;;;;;;5025762;28;20199;-69
2021/06/06 12:29:58;;;;;;;9.55;8.65;;;21.00;99.90;;;;;;5026426;28;20210;-69
2021/06/06 12:32:27;;;;;;;9.43;8.57;;;21.10;99.90;;;;;;5026339;28;20667;-69
2021/06/06 12:34:54;;;;;;;11.63;8.48;;;21.10;99.90;;;;;;5023954;28;20243;-68
2021/06/06 12:37:26;;;;;;;8.73;7.07;;;21.10;99.90;;;;;;5026842;28;20358;-69
2021/06/06 12:39:54;;;;;;;10.13;8.20;;;21.10;99.90;;;;;;5023872;28;20203;-69
2021/06/06 12:42:23;;;;;;;7.90;7.18;;;21.20;99.90;;;;;;5027311;28;20199;-69
2021/06/06 12:44:54;;;;;;;7.95;7.22;;;21.20;99.90;;;;;;5026547;28;20207;-70
2021/06/06 12:47:27;;;;;;;9.27;7.70;;;21.20;99.90;;;;;;5026932;28;20206;-68
2021/06/06 12:49:56;;;;;;;7.45;6.75;;;21.20;99.90;;;;;;5024647;28;20600;-70
2021/06/06 12:52:26;;;;;;;9.60;8.60;;;21.30;99.90;;;;;;5027785;28;20211;-71